createdAt,value
2023-05-05T00:00:40.729Z,12.78
2023-05-05T00:03:43.032Z,12.66
2023-05-05T00:06:44.769Z,12.57
2023-05-05T00:09:46.412Z,12.53
2023-05-05T00:12:48.290Z,12.49
2023-05-05T00:15:50.596Z,12.42
2023-05-05T00:18:52.209Z,12.47
2023-05-05T00:21:53.786Z,12.40
2023-05-05T00:24:55.619Z,12.41
2023-05-05T00:27:57.164Z,12.40
2023-05-05T00:30:58.798Z,12.49
2023-05-05T00:34:00.365Z,12.50
2023-05-05T00:37:02.462Z,12.48
2023-05-05T00:40:04.205Z,12.37
2023-05-05T00:43:05.786Z,12.37
2023-05-05T00:46:37.849Z,12.60
2023-05-05T00:49:39.502Z,12.62
2023-05-05T00:52:41.141Z,12.68
2023-05-05T00:55:42.705Z,12.45
2023-05-05T00:58:44.381Z,12.33
2023-05-05T01:01:46.289Z,12.32
2023-05-05T01:04:47.989Z,12.30
2023-05-05T01:08:05.007Z,12.08
2023-05-05T01:11:21.551Z,12.05
2023-05-05T01:14:43.267Z,12.00
2023-05-05T01:18:08.064Z,11.98
2023-05-05T01:21:23.484Z,11.98
2023-05-05T01:24:42.147Z,12.07
2023-05-05T01:28:02.078Z,12.03
2023-05-05T01:31:18.906Z,11.98
2023-05-05T01:34:53.675Z,11.88
2023-05-05T01:38:03.374Z,11.96
2023-05-05T01:41:12.339Z,11.97
2023-05-05T01:44:14.803Z,11.99
2023-05-05T01:47:17.054Z,12.02
2023-05-05T01:50:18.646Z,12.02
2023-05-05T01:53:20.454Z,11.89
2023-05-05T01:56:23.413Z,11.87
2023-05-05T01:59:25.671Z,11.84
2023-05-05T02:02:28.383Z,11.86
2023-05-05T02:05:29.957Z,11.82
2023-05-05T02:08:31.624Z,11.81
2023-05-05T02:11:33.214Z,11.74
2023-05-05T02:14:34.864Z,11.81
2023-05-05T02:17:36.431Z,11.84
2023-05-05T02:20:38.790Z,11.84
2023-05-05T02:23:40.554Z,11.76
2023-05-05T02:26:42.131Z,11.65
2023-05-05T02:29:48.397Z,11.61
2023-05-05T02:32:58.977Z,11.60
2023-05-05T02:36:05.625Z,11.47
2023-05-05T02:39:11.197Z,11.50
2023-05-05T02:42:15.020Z,11.44
2023-05-05T02:45:17.728Z,11.44
2023-05-05T02:48:19.362Z,11.43
2023-05-05T02:51:20.911Z,11.55
2023-05-05T02:54:22.624Z,11.68
2023-05-05T02:57:38.021Z,11.73
2023-05-05T03:00:58.282Z,11.77
2023-05-05T03:04:13.105Z,11.78
2023-05-05T03:07:27.624Z,11.84
2023-05-05T03:10:33.026Z,11.88
2023-05-05T03:13:37.847Z,11.80
2023-05-05T03:16:40.856Z,11.76
2023-05-05T03:19:43.197Z,11.82
2023-05-05T03:22:44.769Z,11.81
2023-05-05T03:25:49.416Z,11.81
2023-05-05T03:28:51.216Z,11.80
2023-05-05T03:31:52.880Z,11.81
2023-05-05T03:34:54.472Z,11.73
2023-05-05T03:37:56.187Z,11.69
2023-05-05T03:41:01.207Z,11.68
2023-05-05T03:44:02.770Z,11.74
2023-05-05T03:47:04.372Z,11.67
2023-05-05T03:50:07.469Z,11.71
2023-05-05T03:53:09.213Z,11.56
2023-05-05T03:56:10.795Z,11.53
2023-05-05T03:59:12.455Z,11.61
2023-05-05T04:02:14.849Z,11.68
2023-05-05T04:05:17.592Z,11.72
2023-05-05T04:08:21.892Z,11.74
2023-05-05T04:11:23.450Z,11.68
2023-05-05T04:14:25.154Z,11.44
2023-05-05T04:17:26.702Z,11.45
2023-05-05T04:20:31.316Z,11.39
2023-05-05T04:23:32.931Z,11.40
2023-05-05T04:26:34.544Z,11.27
2023-05-05T04:29:36.212Z,11.43
2023-05-05T04:32:37.805Z,11.57
2023-05-05T04:35:39.348Z,11.73
2023-05-05T04:38:40.914Z,11.83
2023-05-05T04:41:42.522Z,11.94
2023-05-05T04:44:44.110Z,12.03
2023-05-05T04:47:45.735Z,11.93
2023-05-05T04:50:47.355Z,11.94
2023-05-05T04:53:48.929Z,11.99
2023-05-05T04:56:50.602Z,12.08
2023-05-05T04:59:52.275Z,12.01
2023-05-05T05:02:53.955Z,12.16
2023-05-05T05:05:55.569Z,12.20
2023-05-05T05:08:57.155Z,12.24
2023-05-05T05:12:04.511Z,12.33
2023-05-05T05:15:06.765Z,12.28
2023-05-05T05:18:08.304Z,12.32
2023-05-05T05:21:10.359Z,12.37
2023-05-05T05:24:11.956Z,12.33
2023-05-05T05:27:13.509Z,12.49
2023-05-05T05:30:15.738Z,12.57
2023-05-05T05:33:17.413Z,12.55
2023-05-05T05:36:21.205Z,12.50
2023-05-05T05:39:23.269Z,12.58
2023-05-05T05:42:24.680Z,12.62
2023-05-05T05:45:26.571Z,12.66
2023-05-05T05:48:29.420Z,12.62
2023-05-05T05:51:31.582Z,12.66
2023-05-05T05:54:34.509Z,12.61
2023-05-05T05:57:36.133Z,12.84
2023-05-05T06:00:37.677Z,12.92
2023-05-05T06:03:39.288Z,12.90
2023-05-05T06:06:41.121Z,12.94
2023-05-05T06:09:42.684Z,13.02
2023-05-05T06:12:44.337Z,13.10
2023-05-05T06:15:46.205Z,13.19
2023-05-05T06:18:47.957Z,13.29
2023-05-05T06:21:49.573Z,13.42
2023-05-05T06:24:51.146Z,13.36
2023-05-05T06:27:53.105Z,13.47
2023-05-05T06:30:54.719Z,13.61
2023-05-05T06:33:56.338Z,13.68
2023-05-05T06:36:57.882Z,13.68
2023-05-05T06:39:59.469Z,13.72
2023-05-05T06:43:01.042Z,13.79
2023-05-05T06:46:02.865Z,13.82
2023-05-05T06:49:04.378Z,13.92
2023-05-05T06:52:08.758Z,13.79
2023-05-05T06:55:10.380Z,13.95
2023-05-05T06:58:12.140Z,14.10
2023-05-05T07:01:13.718Z,14.14
2023-05-05T07:04:15.376Z,14.20
2023-05-05T07:07:17.074Z,14.22
2023-05-05T07:10:18.706Z,14.28
2023-05-05T07:13:20.397Z,14.38
2023-05-05T07:16:23.366Z,14.45
2023-05-05T07:19:25.066Z,14.46
2023-05-05T07:22:26.692Z,14.41
2023-05-05T07:25:28.278Z,14.66
2023-05-05T07:28:29.946Z,14.81
2023-05-05T07:31:31.761Z,15.00
2023-05-05T07:34:34.600Z,14.96
2023-05-05T07:37:36.320Z,14.95
2023-05-05T07:40:37.953Z,15.20
2023-05-05T07:43:44.251Z,15.43
2023-05-05T07:46:46.488Z,15.22
2023-05-05T07:49:48.168Z,15.33
2023-05-05T07:52:53.935Z,15.56
2023-05-05T07:56:03.963Z,15.76
2023-05-05T07:59:05.655Z,15.86
2023-05-05T08:02:07.410Z,16.11
2023-05-05T08:05:09.482Z,16.31
2023-05-05T08:08:11.419Z,16.51
2023-05-05T08:11:12.972Z,16.80
2023-05-05T08:14:15.180Z,16.81
2023-05-05T08:17:19.665Z,16.86
2023-05-05T08:20:21.581Z,16.95
2023-05-05T08:23:23.261Z,16.88
2023-05-05T08:26:24.885Z,16.75
2023-05-05T08:29:26.526Z,16.69
2023-05-05T08:32:29.861Z,16.72
2023-05-05T08:35:31.570Z,16.44
2023-05-05T08:38:33.183Z,16.11
2023-05-05T08:41:34.770Z,16.13
2023-05-05T08:44:36.971Z,16.23
2023-05-05T08:47:38.787Z,16.24
2023-05-05T08:50:40.596Z,16.50
2023-05-05T08:53:54.240Z,16.56
2023-05-05T08:56:55.850Z,16.69
2023-05-05T08:59:57.445Z,17.00
2023-05-05T09:02:59.639Z,16.95
2023-05-05T09:06:01.308Z,16.94
2023-05-05T09:09:03.002Z,17.19
2023-05-05T09:12:04.997Z,17.40
2023-05-05T09:15:08.892Z,16.97
2023-05-05T09:18:13.411Z,17.34
2023-05-05T09:21:26.008Z,17.47
2023-05-05T09:24:27.659Z,17.63
2023-05-05T09:27:29.213Z,17.97
2023-05-05T09:30:31.483Z,18.05
2023-05-05T09:33:33.056Z,18.55
2023-05-05T09:36:45.498Z,19.22
2023-05-05T09:39:53.767Z,19.57
2023-05-05T09:43:01.117Z,19.64
2023-05-05T09:46:07.475Z,20.32
2023-05-05T09:49:14.347Z,19.84
2023-05-05T09:52:16.010Z,20.15
2023-05-05T09:55:18.136Z,20.25
2023-05-05T09:58:37.907Z,20.62
2023-05-05T10:01:39.783Z,20.92
2023-05-05T10:04:44.039Z,20.73
2023-05-05T10:07:46.537Z,20.01
2023-05-05T10:10:58.343Z,20.23
2023-05-05T10:13:59.982Z,20.32
2023-05-05T10:17:01.760Z,20.27
2023-05-05T10:20:06.965Z,20.33
2023-05-05T10:23:08.684Z,20.58
2023-05-05T10:26:10.643Z,20.96
2023-05-05T10:29:42.420Z,21.19
2023-05-05T10:35:53.370Z,21.37
2023-05-05T10:38:58.011Z,20.84
2023-05-05T10:42:01.901Z,20.97
2023-05-05T10:45:03.752Z,21.07
2023-05-05T10:48:09.735Z,21.48
2023-05-05T10:51:24.115Z,21.57
2023-05-05T10:54:38.358Z,21.59
2023-05-05T10:57:41.781Z,21.41
2023-05-05T11:00:43.185Z,21.49
2023-05-05T11:03:44.716Z,22.00
2023-05-05T11:07:14.684Z,21.85
2023-05-05T11:10:18.880Z,21.45
2023-05-05T11:13:21.258Z,22.05
2023-05-05T11:16:47.901Z,22.09
2023-05-05T11:19:52.201Z,22.35
2023-05-05T11:23:02.531Z,22.27
2023-05-05T11:26:04.285Z,22.04
2023-05-05T11:29:06.431Z,22.03
2023-05-05T11:32:12.458Z,22.20
2023-05-05T11:35:14.801Z,21.88
2023-05-05T11:38:16.410Z,21.59
2023-05-05T11:41:33.184Z,22.03
2023-05-05T11:44:34.850Z,21.90
2023-05-05T11:47:36.586Z,22.51
2023-05-05T11:50:38.169Z,22.52
2023-05-05T11:53:46.274Z,22.56
2023-05-05T11:56:51.660Z,22.54
2023-05-05T12:00:01.234Z,22.28
2023-05-05T12:03:03.232Z,21.84
2023-05-05T12:06:05.709Z,22.30
2023-05-05T12:09:11.852Z,22.70
2023-05-05T12:12:13.505Z,22.83
2023-05-05T12:15:15.105Z,22.38
2023-05-05T12:18:20.296Z,22.23
2023-05-05T12:21:21.932Z,21.40
2023-05-05T12:24:23.476Z,21.44
2023-05-05T12:27:26.435Z,21.50
2023-05-05T12:30:28.382Z,21.29
2023-05-05T12:33:30.261Z,21.71
2023-05-05T12:36:33.573Z,22.33
2023-05-05T12:39:36.557Z,22.68
2023-05-05T12:42:39.025Z,22.37
2023-05-05T12:45:40.834Z,21.83
2023-05-05T12:48:48.183Z,21.61
2023-05-05T12:51:56.643Z,21.60
2023-05-05T12:54:59.339Z,22.21
2023-05-05T12:58:07.034Z,21.71
2023-05-05T13:01:09.197Z,21.38
2023-05-05T13:04:14.276Z,21.09
2023-05-05T13:07:16.125Z,20.96
2023-05-05T13:10:18.009Z,20.79
2023-05-05T13:13:21.809Z,20.58
2023-05-05T13:16:23.490Z,20.48
2023-05-05T13:19:25.233Z,20.27
2023-05-05T13:22:26.668Z,20.18
2023-05-05T13:25:28.218Z,19.90
2023-05-05T13:28:30.009Z,19.63
2023-05-05T13:31:31.601Z,19.63
2023-05-05T13:34:33.283Z,19.31
2023-05-05T13:37:34.778Z,19.40
2023-05-05T13:40:36.649Z,19.02
2023-05-05T13:43:38.274Z,18.92
2023-05-05T13:46:40.665Z,18.89
2023-05-05T13:49:42.434Z,18.69
2023-05-05T13:52:44.056Z,18.48
2023-05-05T13:55:47.608Z,18.11
2023-05-05T13:59:07.675Z,17.76
2023-05-05T14:02:10.183Z,17.43
2023-05-05T14:15:15.517Z,16.60
2023-05-05T14:18:17.041Z,16.31
2023-05-05T14:21:18.639Z,16.43
2023-05-05T14:24:20.218Z,16.31
2023-05-05T14:27:21.777Z,16.21
2023-05-05T14:30:23.412Z,16.02
2023-05-05T14:33:25.105Z,15.68
2023-05-05T14:36:26.941Z,15.70
2023-05-05T14:39:28.594Z,15.63
2023-05-05T14:42:33.245Z,15.80
2023-05-05T15:16:03.230Z,15.30
2023-05-05T15:19:44.489Z,15.48
2023-05-05T15:48:52.157Z,15.64
2023-05-05T16:00:03.972Z,16.08
2023-05-05T16:03:19.266Z,15.99
2023-05-05T16:07:06.602Z,15.87
2023-05-05T16:10:19.195Z,15.81
2023-05-05T16:13:50.646Z,15.76
2023-05-05T16:17:04.507Z,15.76
2023-05-05T16:20:23.272Z,15.60
2023-05-05T16:23:54.082Z,15.68
2023-05-05T16:27:04.829Z,15.68
2023-05-05T16:30:10.504Z,15.80
2023-05-05T16:33:16.677Z,15.82
2023-05-05T16:36:29.476Z,15.57
2023-05-05T16:39:47.294Z,15.75
2023-05-05T16:42:57.067Z,15.67
2023-05-05T16:46:01.621Z,15.59
2023-05-05T16:49:05.709Z,15.51
2023-05-05T16:52:17.388Z,15.60
2023-05-05T16:55:32.241Z,15.65
2023-05-05T16:58:48.164Z,15.77
2023-05-05T17:02:05.197Z,16.11
2023-05-05T17:05:09.844Z,16.26
2023-05-05T17:08:22.845Z,16.17
2023-05-05T17:11:29.037Z,16.00
2023-05-05T17:14:42.793Z,15.87
2023-05-05T17:17:52.917Z,15.65
2023-05-05T17:20:59.012Z,15.74
2023-05-05T17:24:10.289Z,15.70
2023-05-05T17:27:18.931Z,15.58
2023-05-05T17:30:30.332Z,15.64
2023-05-05T17:33:32.342Z,15.61
2023-05-05T17:36:42.494Z,15.53
2023-05-05T17:39:48.053Z,15.61
2023-05-05T17:43:08.749Z,15.72
2023-05-05T17:46:22.901Z,15.74
2023-05-05T17:49:47.982Z,15.75
2023-05-05T17:52:50.145Z,15.75
2023-05-05T17:56:09.440Z,15.54
2023-05-05T17:59:23.774Z,15.45
2023-05-05T18:02:48.097Z,15.60
2023-05-05T18:06:20.490Z,15.45
2023-05-05T18:09:31.177Z,15.37
2023-05-05T18:13:35.603Z,15.32
2023-05-05T18:16:32.958Z,15.23
2023-05-05T18:19:36.754Z,15.07
2023-05-05T18:22:45.669Z,14.99
2023-05-05T18:25:52.735Z,14.96
2023-05-05T18:29:01.391Z,14.97
2023-05-05T18:32:11.492Z,14.96
2023-05-05T18:35:13.716Z,14.89
2023-05-05T18:38:15.514Z,15.03
2023-05-05T18:41:19.225Z,15.01
2023-05-05T18:44:22.552Z,14.83
2023-05-05T18:47:24.356Z,15.10
2023-05-05T18:50:26.974Z,15.16
2023-05-05T18:53:33.217Z,15.11
2023-05-05T18:56:38.950Z,15.00
2023-05-05T18:59:43.266Z,14.92
2023-05-05T19:02:45.405Z,14.74
2023-05-05T19:05:47.507Z,14.58
2023-05-05T19:08:49.275Z,14.56
2023-05-05T19:11:53.378Z,14.66
2023-05-05T19:14:55.316Z,14.66
2023-05-05T19:17:57.049Z,14.70
2023-05-05T19:21:00.286Z,14.52
2023-05-05T19:24:02.006Z,14.33
2023-05-05T19:27:04.052Z,14.49
2023-05-05T19:30:05.931Z,14.49
2023-05-05T19:33:07.799Z,14.40
2023-05-05T19:36:09.947Z,14.31
2023-05-05T19:39:13.710Z,14.45
2023-05-05T19:42:17.234Z,14.61
2023-05-05T19:45:18.691Z,14.71
2023-05-05T19:48:20.886Z,14.71
2023-05-05T19:51:22.702Z,14.73
2023-05-05T19:54:24.688Z,14.69
2023-05-05T19:57:26.441Z,14.74
2023-05-05T20:00:28.144Z,14.57
2023-05-05T20:03:29.957Z,14.61
2023-05-05T20:06:32.204Z,14.60
2023-05-05T20:09:33.811Z,14.51
2023-05-05T20:12:35.606Z,14.58
2023-05-05T20:15:37.363Z,14.66
2023-05-05T20:18:39.086Z,14.58
2023-05-05T20:21:41.139Z,14.56
2023-05-05T20:24:42.927Z,14.46
2023-05-05T20:28:06.393Z,14.48
2023-05-05T20:48:49.326Z,14.22
2023-05-05T20:56:13.563Z,14.33
2023-05-05T20:59:26.977Z,14.30
2023-05-05T21:02:33.850Z,14.20
2023-05-05T21:05:37.338Z,14.29
2023-05-05T21:08:46.356Z,14.27
2023-05-05T21:11:51.013Z,14.19
2023-05-05T21:15:01.974Z,14.29
2023-05-05T21:18:10.432Z,14.16
2023-05-05T21:21:12.348Z,14.11
2023-05-05T21:24:16.009Z,14.16
2023-05-05T21:27:17.886Z,14.04
2023-05-05T21:30:19.847Z,14.06
2023-05-05T21:33:23.491Z,14.11
2023-05-05T21:36:25.317Z,13.94
2023-05-05T21:39:32.688Z,14.01
2023-05-05T21:42:34.673Z,14.07
2023-05-05T21:45:36.469Z,13.92
2023-05-05T21:48:40.085Z,13.63
2023-05-05T22:00:40.421Z,13.75
2023-05-05T22:04:04.779Z,13.83
2023-05-05T22:07:23.616Z,13.75
2023-05-05T22:14:07.896Z,13.82
2023-05-05T22:17:12.100Z,13.65
2023-05-05T22:20:16.916Z,13.59
2023-05-05T22:23:29.891Z,13.66
2023-05-05T22:26:33.944Z,13.59
2023-05-05T22:29:36.907Z,13.55
2023-05-05T22:32:38.869Z,13.45
2023-05-05T22:35:42.153Z,13.50
2023-05-05T22:38:46.068Z,13.45
2023-05-05T22:41:50.024Z,13.31
2023-05-05T22:44:51.723Z,13.29
2023-05-05T22:47:53.494Z,13.21
2023-05-05T22:50:55.284Z,13.26
2023-05-05T22:53:57.885Z,13.12
2023-05-05T22:56:59.558Z,13.09
2023-05-05T23:00:01.405Z,13.20
2023-05-05T23:03:03.014Z,13.19
2023-05-05T23:06:04.834Z,13.07
2023-05-05T23:09:07.535Z,13.13
2023-05-05T23:12:09.153Z,13.09
2023-05-05T23:15:11.347Z,13.02
2023-05-05T23:18:13.392Z,12.91
2023-05-05T23:21:16.076Z,12.87
2023-05-05T23:24:17.904Z,12.87
2023-05-05T23:27:22.169Z,12.91
2023-05-05T23:30:23.828Z,12.88
2023-05-05T23:33:25.410Z,12.94
2023-05-05T23:36:29.514Z,12.97
2023-05-05T23:39:33.724Z,12.90
2023-05-05T23:42:35.352Z,12.84
2023-05-05T23:45:37.069Z,12.78
2023-05-05T23:48:38.665Z,12.72
2023-05-05T23:51:40.372Z,12.74
2023-05-05T23:54:42.029Z,12.73
2023-05-05T23:57:43.600Z,12.72
